createdAt,value
2019-02-20T00:02:33.697Z,84.99
2019-02-20T00:05:47.224Z,85.31
2019-02-20T00:09:00.977Z,85.47
2019-02-20T00:12:14.510Z,85.01
2019-02-20T00:15:28.035Z,84.53
2019-02-20T00:18:41.499Z,84.56
2019-02-20T00:21:55.285Z,84.82
2019-02-20T00:25:09.315Z,85.15
2019-02-20T00:28:22.891Z,85.01
2019-02-20T00:31:36.745Z,85.02
2019-02-20T00:34:50.208Z,84.67
2019-02-20T00:38:03.839Z,84.55
2019-02-20T00:41:17.369Z,85.12
2019-02-20T00:44:39.687Z,85.30
2019-02-20T00:48:15.833Z,85.93
2019-02-20T00:52:06.919Z,86.38
2019-02-20T00:55:20.538Z,86.10
2019-02-20T00:58:34.403Z,86.01
2019-02-20T01:01:47.912Z,86.16
2019-02-20T01:05:01.567Z,86.39
2019-02-20T01:08:15.548Z,86.10
2019-02-20T01:11:29.369Z,85.93
2019-02-20T01:14:43.179Z,85.46
2019-02-20T01:17:56.664Z,85.65
2019-02-20T01:21:10.153Z,85.57
2019-02-20T01:24:23.662Z,85.83
2019-02-20T01:27:37.603Z,86.12
2019-02-20T01:30:54.263Z,86.37
2019-02-20T01:34:07.827Z,86.19
2019-02-20T01:37:21.653Z,85.98
2019-02-20T01:40:35.423Z,85.70
2019-02-20T01:43:48.963Z,85.61
2019-02-20T01:47:02.574Z,85.97
2019-02-20T01:50:16.274Z,86.15
2019-02-20T01:53:29.758Z,85.78
2019-02-20T01:56:43.379Z,85.70
2019-02-20T01:59:57.046Z,85.38
2019-02-20T02:03:10.878Z,85.03
2019-02-20T02:06:24.415Z,85.03
2019-02-20T02:09:38.402Z,84.93
2019-02-20T02:12:51.880Z,85.45
2019-02-20T02:16:05.471Z,85.78
2019-02-20T02:19:19.284Z,85.91
2019-02-20T02:22:33.269Z,86.30
2019-02-20T02:25:46.966Z,86.19
2019-02-20T02:29:00.963Z,85.88
2019-02-20T02:32:14.457Z,85.76
2019-02-20T02:35:27.972Z,85.51
2019-02-20T02:38:41.496Z,85.29
2019-02-20T02:41:55.767Z,86.17
2019-02-20T02:45:09.575Z,86.18
2019-02-20T02:48:23.473Z,86.06
2019-02-20T02:51:37.069Z,86.32
2019-02-20T02:54:50.545Z,86.22
2019-02-20T02:58:04.156Z,86.02
2019-02-20T03:01:17.642Z,85.95
2019-02-20T03:04:31.260Z,85.97
2019-02-20T03:07:44.874Z,85.83
2019-02-20T03:10:58.397Z,85.89
2019-02-20T03:14:12.007Z,85.89
2019-02-20T03:17:25.617Z,85.54
2019-02-20T03:20:39.112Z,85.64
2019-02-20T03:23:52.623Z,85.91
2019-02-20T03:27:06.560Z,86.02
2019-02-20T03:30:20.077Z,85.82
2019-02-20T03:33:33.894Z,85.64
2019-02-20T03:36:47.417Z,85.47
2019-02-20T03:40:01.153Z,85.78
2019-02-20T03:43:15.126Z,85.97
2019-02-20T03:46:29.163Z,86.26
2019-02-20T03:49:42.663Z,86.18
2019-02-20T03:52:56.150Z,85.98
2019-02-20T03:56:09.736Z,85.48
2019-02-20T03:59:23.416Z,84.96
2019-02-20T04:02:36.925Z,84.94
2019-02-20T04:05:50.697Z,85.22
2019-02-20T04:09:05.193Z,85.72
2019-02-20T04:12:18.728Z,86.04
2019-02-20T04:15:32.695Z,86.19
2019-02-20T04:18:46.189Z,86.20
2019-02-20T04:21:59.676Z,86.14
2019-02-20T04:25:13.442Z,86.10
2019-02-20T04:28:26.993Z,85.63
2019-02-20T04:31:40.865Z,85.46
2019-02-20T04:34:54.344Z,85.25
2019-02-20T04:38:08.303Z,85.11
2019-02-20T04:41:21.792Z,85.36
2019-02-20T04:44:35.321Z,85.56
2019-02-20T04:47:49.249Z,85.62
2019-02-20T04:51:02.866Z,85.97
2019-02-20T04:54:16.480Z,85.84
2019-02-20T04:57:30.283Z,85.44
2019-02-20T05:00:44.205Z,85.20
2019-02-20T05:03:57.735Z,84.90
2019-02-20T05:07:11.371Z,84.62
2019-02-20T05:10:24.845Z,85.13
2019-02-20T05:13:38.363Z,85.27
2019-02-20T05:16:51.840Z,85.25
2019-02-20T05:20:05.837Z,85.44
2019-02-20T05:23:19.640Z,85.12
2019-02-20T05:26:33.129Z,85.13
2019-02-20T05:29:46.619Z,85.12
2019-02-20T05:33:00.139Z,85.25
2019-02-20T05:36:13.778Z,85.89
2019-02-20T05:39:27.315Z,86.18
2019-02-20T05:42:41.258Z,86.27
2019-02-20T05:45:55.128Z,86.17
2019-02-20T05:49:08.653Z,85.98
2019-02-20T05:52:22.140Z,85.90
2019-02-20T05:55:35.942Z,85.57
2019-02-20T05:58:49.458Z,85.25
2019-02-20T06:02:03.056Z,85.05
2019-02-20T06:05:16.682Z,85.73
2019-02-20T06:08:30.395Z,85.87
2019-02-20T06:11:43.869Z,85.69
2019-02-20T06:14:57.447Z,85.54
2019-02-20T06:18:11.073Z,85.25
2019-02-20T06:21:24.681Z,85.36
2019-02-20T06:24:44.177Z,85.34
2019-02-20T06:27:53.588Z,85.52
2019-02-20T06:31:07.079Z,85.89
2019-02-20T06:34:20.722Z,85.79
2019-02-20T06:37:34.207Z,85.62
2019-02-20T06:40:47.830Z,85.48
2019-02-20T06:44:01.529Z,85.43
2019-02-20T06:47:15.285Z,85.35
2019-02-20T06:50:28.891Z,85.15
2019-02-20T06:53:42.374Z,85.34
2019-02-20T06:56:56.652Z,85.68
2019-02-20T07:00:12.423Z,86.02
2019-02-20T07:03:25.978Z,86.34
2019-02-20T07:07:07.566Z,86.20
2019-02-20T07:10:47.996Z,86.18
2019-02-20T07:14:34.337Z,86.00
2019-02-20T07:18:28.099Z,86.09
2019-02-20T07:22:12.887Z,85.95
2019-02-20T07:26:07.160Z,86.09
2019-02-20T07:29:53.935Z,86.28
2019-02-20T07:33:07.661Z,86.08
2019-02-20T07:36:21.284Z,86.13
2019-02-20T07:39:34.901Z,86.03
2019-02-20T07:42:48.582Z,85.70
2019-02-20T07:46:02.266Z,85.59
2019-02-20T07:49:15.934Z,85.30
2019-02-20T07:52:29.437Z,85.32
2019-02-20T07:55:42.897Z,85.28
2019-02-20T07:58:56.736Z,84.91
2019-02-20T08:02:10.501Z,85.04
2019-02-20T08:05:24.484Z,84.82
2019-02-20T08:08:37.997Z,84.79
2019-02-20T08:11:51.913Z,84.86
2019-02-20T08:15:25.052Z,85.13
2019-02-20T08:18:38.556Z,85.40
2019-02-20T08:21:52.177Z,84.96
2019-02-20T08:25:06.408Z,84.62
2019-02-20T08:28:19.940Z,84.52
2019-02-20T08:31:33.798Z,84.26
2019-02-20T08:34:47.673Z,84.00
2019-02-20T08:38:01.464Z,84.03
2019-02-20T08:41:15.316Z,83.82
2019-02-20T08:44:28.789Z,83.48
2019-02-20T08:47:42.288Z,83.75
2019-02-20T08:50:55.825Z,83.51
2019-02-20T08:54:09.434Z,84.35
2019-02-20T08:57:22.917Z,85.04
2019-02-20T09:00:36.779Z,84.50
2019-02-20T09:03:50.307Z,83.85
2019-02-20T09:07:03.979Z,84.80
2019-02-20T09:10:17.989Z,85.49
2019-02-20T09:13:31.493Z,83.38
2019-02-20T09:16:45.056Z,81.78
2019-02-20T09:19:58.557Z,79.19
2019-02-20T09:23:12.042Z,77.90
2019-02-20T09:26:25.671Z,77.67
2019-02-20T09:29:39.275Z,75.16
2019-02-20T09:32:52.754Z,73.02
2019-02-20T09:36:06.237Z,71.42
2019-02-20T09:39:28.612Z,69.88
2019-02-20T09:42:44.058Z,69.81
2019-02-20T09:45:57.586Z,70.00
2019-02-20T09:49:11.327Z,67.49
2019-02-20T09:52:24.816Z,66.64
2019-02-20T09:55:38.419Z,63.10
2019-02-20T09:58:51.903Z,63.01
2019-02-20T10:02:05.617Z,62.13
2019-02-20T10:05:19.110Z,62.04
2019-02-20T10:08:32.638Z,62.21
2019-02-20T10:11:46.177Z,60.82
2019-02-20T10:14:59.749Z,60.06
2019-02-20T10:18:13.541Z,59.80
2019-02-20T10:21:27.685Z,60.04
2019-02-20T10:24:41.168Z,59.73
2019-02-20T10:27:55.135Z,58.00
2019-02-20T10:31:08.622Z,57.04
2019-02-20T10:34:22.588Z,57.35
2019-02-20T10:37:36.437Z,56.30
2019-02-20T10:40:50.008Z,56.14
2019-02-20T10:44:05.766Z,56.24
2019-02-20T10:47:19.282Z,52.85
2019-02-20T10:50:32.812Z,53.78
2019-02-20T10:53:48.154Z,52.81
2019-02-20T10:57:01.833Z,53.07
2019-02-20T11:00:24.659Z,53.06
2019-02-20T11:03:38.357Z,50.30
2019-02-20T11:06:51.838Z,49.50
2019-02-20T11:10:05.902Z,49.64
2019-02-20T11:13:19.379Z,49.50
2019-02-20T11:16:33.153Z,50.12
2019-02-20T11:19:46.742Z,51.64
2019-02-20T11:23:00.568Z,51.31
2019-02-20T11:26:26.502Z,51.56
2019-02-20T11:29:41.428Z,51.62
2019-02-20T11:32:54.917Z,51.88
2019-02-20T11:36:30.137Z,51.98
2019-02-20T11:39:43.909Z,51.50
2019-02-20T11:42:59.022Z,49.99
2019-02-20T11:46:14.203Z,48.49
2019-02-20T11:49:31.670Z,47.40
2019-02-20T11:52:45.199Z,48.29
2019-02-20T11:55:58.702Z,48.34
2019-02-20T11:59:12.194Z,49.46
2019-02-20T12:02:26.006Z,49.23
2019-02-20T12:05:39.909Z,48.08
2019-02-20T12:08:55.636Z,47.99
2019-02-20T12:12:09.571Z,47.08
2019-02-20T12:15:23.129Z,45.68
2019-02-20T12:18:36.887Z,44.86
2019-02-20T12:21:50.451Z,44.87
2019-02-20T12:25:04.142Z,45.77
2019-02-20T12:28:17.946Z,45.53
2019-02-20T12:31:31.575Z,43.87
2019-02-20T12:34:46.454Z,42.91
2019-02-20T12:38:00.183Z,42.60
2019-02-20T12:41:13.927Z,40.78
2019-02-20T12:44:27.468Z,41.81
2019-02-20T12:47:42.092Z,41.52
2019-02-20T12:50:55.902Z,41.44
2019-02-20T12:54:09.456Z,42.30
2019-02-20T12:57:23.252Z,42.35
2019-02-20T13:00:36.935Z,41.08
2019-02-20T13:03:50.813Z,40.92
2019-02-20T13:07:04.295Z,41.29
2019-02-20T13:10:17.938Z,41.72
2019-02-20T13:13:31.508Z,42.81
2019-02-20T13:16:45.545Z,42.89
2019-02-20T13:19:59.326Z,43.19
2019-02-20T13:23:13.275Z,44.31
2019-02-20T13:26:26.786Z,44.78
2019-02-20T13:29:40.316Z,45.43
2019-02-20T13:32:53.865Z,46.94
2019-02-20T13:36:07.884Z,47.99
2019-02-20T13:39:21.684Z,48.33
2019-02-20T13:42:35.182Z,47.66
2019-02-20T13:45:48.738Z,47.15
2019-02-20T13:49:02.444Z,47.89
2019-02-20T13:52:16.261Z,46.90
2019-02-20T13:55:34.529Z,46.91
2019-02-20T13:58:46.868Z,46.85
2019-02-20T14:02:00.397Z,46.16
2019-02-20T14:05:14.322Z,47.15
2019-02-20T14:08:28.591Z,46.84
2019-02-20T14:11:44.633Z,47.88
2019-02-20T14:14:59.708Z,48.26
2019-02-20T14:18:13.335Z,49.03
2019-02-20T14:21:27.017Z,48.78
2019-02-20T14:24:40.837Z,48.95
2019-02-20T14:27:54.760Z,49.31
2019-02-20T14:31:08.604Z,47.61
2019-02-20T14:34:22.410Z,47.12
2019-02-20T14:37:36.128Z,47.71
2019-02-20T14:40:49.904Z,48.85
2019-02-20T14:44:04.790Z,49.31
2019-02-20T14:47:18.260Z,47.34
2019-02-20T14:50:31.878Z,45.54
2019-02-20T14:53:45.415Z,45.82
2019-02-20T14:57:01.085Z,45.99
2019-02-20T15:00:15.229Z,47.44
2019-02-20T15:03:28.948Z,48.07
2019-02-20T15:06:42.877Z,48.48
2019-02-20T15:09:57.184Z,47.61
2019-02-20T15:13:11.198Z,49.16
2019-02-20T15:16:25.455Z,48.37
2019-02-20T15:19:39.494Z,49.02
2019-02-20T15:22:53.888Z,48.98
2019-02-20T15:26:08.008Z,48.99
2019-02-20T15:29:21.498Z,48.77
2019-02-20T15:32:39.872Z,48.64
2019-02-20T15:35:55.984Z,49.18
2019-02-20T15:39:10.601Z,50.37
2019-02-20T15:42:31.011Z,49.99
2019-02-20T15:45:44.704Z,50.15
2019-02-20T15:48:58.501Z,51.24
2019-02-20T15:52:12.200Z,51.46
2019-02-20T15:55:25.646Z,51.55
2019-02-20T15:58:39.281Z,51.68
2019-02-20T16:01:52.871Z,51.09
2019-02-20T16:05:06.645Z,50.94
2019-02-20T16:08:20.624Z,51.57
2019-02-20T16:11:34.183Z,52.77
2019-02-20T16:14:48.321Z,52.88
2019-02-20T16:18:01.904Z,53.24
2019-02-20T16:21:15.424Z,53.18
2019-02-20T16:24:29.212Z,54.09
2019-02-20T16:27:47.033Z,54.63
2019-02-20T16:30:58.621Z,54.81
2019-02-20T16:34:12.114Z,55.55
2019-02-20T16:37:25.587Z,55.57
2019-02-20T16:40:39.370Z,55.83
2019-02-20T16:43:52.938Z,56.10
2019-02-20T16:47:06.434Z,57.28
2019-02-20T16:50:20.037Z,57.75
2019-02-20T16:53:33.708Z,58.44
2019-02-20T16:56:47.446Z,59.16
2019-02-20T17:00:01.275Z,60.10
2019-02-20T17:03:15.066Z,60.82
2019-02-20T17:06:28.623Z,61.28
2019-02-20T17:09:42.100Z,61.88
2019-02-20T17:12:55.969Z,62.23
2019-02-20T17:16:10.449Z,62.89
2019-02-20T17:19:24.230Z,63.69
2019-02-20T17:22:37.800Z,64.33
2019-02-20T17:25:51.800Z,64.46
2019-02-20T17:29:05.933Z,64.82
2019-02-20T17:32:19.610Z,65.06
2019-02-20T17:35:33.361Z,65.33
2019-02-20T17:38:46.972Z,65.51
2019-02-20T17:42:00.427Z,65.75
2019-02-20T17:45:14.250Z,65.95
2019-02-20T17:48:28.526Z,66.44
2019-02-20T17:51:41.987Z,66.77
2019-02-20T17:54:55.468Z,67.43
2019-02-20T17:58:14.737Z,67.71
2019-02-20T18:01:24.510Z,68.35
2019-02-20T18:04:38.667Z,68.73
2019-02-20T18:07:52.152Z,68.94
2019-02-20T18:11:07.435Z,69.34
2019-02-20T18:14:20.959Z,69.34
2019-02-20T18:17:34.511Z,69.43
2019-02-20T18:20:48.011Z,69.37
2019-02-20T18:24:01.487Z,70.38
2019-02-20T18:27:14.965Z,71.07
2019-02-20T18:30:28.931Z,71.13
2019-02-20T18:33:42.392Z,71.10
2019-02-20T18:36:55.886Z,71.25
2019-02-20T18:40:10.023Z,71.37
2019-02-20T18:43:23.572Z,72.59
2019-02-20T18:46:37.165Z,72.84
2019-02-20T18:49:50.621Z,73.20
2019-02-20T18:53:04.585Z,73.34
2019-02-20T18:56:18.023Z,73.65
2019-02-20T18:59:31.507Z,73.60
2019-02-20T19:02:45.079Z,74.32
2019-02-20T19:05:58.578Z,74.71
2019-02-20T19:09:16.668Z,75.46
2019-02-20T19:13:10.906Z,76.03
2019-02-20T19:17:09.314Z,76.30
2019-02-20T19:20:52.662Z,76.49
2019-02-20T19:24:47.302Z,76.10
2019-02-20T19:28:44.083Z,76.55
2019-02-20T19:32:21.351Z,76.71
2019-02-20T19:36:19.034Z,76.75
2019-02-20T19:39:54.565Z,77.39
2019-02-20T19:43:37.696Z,77.84
2019-02-20T19:47:16.350Z,78.03
2019-02-20T19:50:39.934Z,78.13
2019-02-20T19:54:13.705Z,77.95
2019-02-20T19:57:56.857Z,79.28
2019-02-20T20:01:36.577Z,79.53
2019-02-20T20:05:22.529Z,79.65
2019-02-20T20:09:06.900Z,79.21
2019-02-20T20:12:37.589Z,79.45
2019-02-20T20:16:28.329Z,79.80
2019-02-20T20:20:12.776Z,79.88
2019-02-20T20:24:26.379Z,80.28
2019-02-20T20:28:21.555Z,80.79
2019-02-20T20:32:13.709Z,81.07
2019-02-20T20:36:20.330Z,80.83
2019-02-20T20:40:11.695Z,81.26
2019-02-20T20:44:09.942Z,81.39
2019-02-20T20:47:55.927Z,81.36
2019-02-20T20:51:36.954Z,81.94
2019-02-20T20:55:32.679Z,82.31
2019-02-20T20:59:16.896Z,81.94
2019-02-20T21:02:35.408Z,81.54
2019-02-20T21:06:14.366Z,81.63
2019-02-20T21:10:06.587Z,81.30
2019-02-20T21:13:46.330Z,81.82
2019-02-20T21:17:35.831Z,82.32
2019-02-20T21:21:16.755Z,82.82
2019-02-20T21:25:00.321Z,82.69
2019-02-20T21:28:26.159Z,83.11
2019-02-20T21:32:20.531Z,83.27
2019-02-20T21:36:05.443Z,83.33
2019-02-20T21:39:28.373Z,83.94
2019-02-20T21:43:02.362Z,84.04
2019-02-20T21:46:53.389Z,83.68
2019-02-20T21:50:32.406Z,83.42
2019-02-20T21:54:21.595Z,83.73
2019-02-20T21:58:01.206Z,84.27
2019-02-20T22:01:56.628Z,84.69
2019-02-20T22:05:38.521Z,85.16
2019-02-20T22:09:11.496Z,85.43
2019-02-20T22:12:53.460Z,84.76
2019-02-20T22:16:48.443Z,84.49
2019-02-20T22:21:05.713Z,84.56
2019-02-20T22:24:28.966Z,84.33
2019-02-20T22:27:53.555Z,84.05
2019-02-20T22:31:42.286Z,83.86
2019-02-20T22:35:36.748Z,83.88
2019-02-20T22:39:25.046Z,83.96
2019-02-20T22:43:08.306Z,84.17
2019-02-20T22:46:53.051Z,84.52
2019-02-20T22:50:14.763Z,84.60
2019-02-20T22:53:50.089Z,84.48
2019-02-20T22:57:37.845Z,84.29
2019-02-20T23:01:20.954Z,83.92
2019-02-20T23:05:07.651Z,84.83
2019-02-20T23:09:15.236Z,84.94
2019-02-20T23:12:44.993Z,84.76
2019-02-20T23:15:58.457Z,85.11
2019-02-20T23:19:11.915Z,85.31
2019-02-20T23:22:25.655Z,85.12
2019-02-20T23:25:39.133Z,84.84
2019-02-20T23:28:52.625Z,84.54
2019-02-20T23:32:06.213Z,84.27
2019-02-20T23:35:19.716Z,84.47
2019-02-20T23:38:33.203Z,84.92
2019-02-20T23:41:46.791Z,85.12
2019-02-20T23:45:00.467Z,85.39
2019-02-20T23:48:13.937Z,85.36
2019-02-20T23:51:27.411Z,85.15
2019-02-20T23:54:40.886Z,85.01
2019-02-20T23:57:54.355Z,84.53
